createdAt,value
2018-11-06T18:20:45.755Z,225.77
2018-11-06T18:23:17.194Z,74.17
2018-11-06T18:25:47.797Z,103.83
2018-11-06T18:28:17.740Z,84.93
2018-11-06T18:30:47.946Z,70.27
2018-11-06T18:33:18.157Z,65.33
2018-11-06T18:35:48.185Z,77.13
2018-11-06T18:38:18.483Z,73.53
2018-11-06T18:40:48.418Z,77.00
2018-11-06T18:43:18.454Z,75.50
2018-11-06T18:45:48.476Z,89.67
2018-11-06T18:48:18.579Z,71.07
2018-11-06T18:50:48.661Z,77.43
2018-11-06T18:53:20.393Z,88.97
2018-11-06T18:55:50.584Z,46.80
2018-11-06T18:58:21.081Z,52.73
2018-11-06T19:00:51.326Z,48.63
2018-11-06T19:03:21.492Z,49.00
2018-11-06T19:05:52.579Z,47.17
2018-11-06T19:08:23.452Z,45.60
2018-11-06T19:10:54.856Z,45.53
2018-11-06T19:13:24.910Z,48.10
2018-11-06T19:15:55.218Z,47.33
2018-11-06T19:18:25.345Z,42.77
2018-11-06T19:20:55.601Z,44.10
2018-11-06T19:23:25.959Z,43.03
2018-11-06T19:25:56.434Z,40.73
2018-11-06T19:28:26.531Z,38.50
2018-11-06T19:30:56.651Z,41.67
2018-11-06T19:33:26.700Z,45.27
2018-11-06T19:35:56.901Z,40.20
2018-11-06T19:38:27.146Z,38.43
2018-11-06T19:40:57.545Z,42.57
2018-11-06T19:43:27.788Z,44.80
2018-11-06T19:45:57.979Z,47.83
2018-11-06T19:48:28.526Z,42.30
2018-11-06T19:50:58.745Z,39.67
2018-11-06T19:53:29.059Z,41.97
2018-11-06T19:55:59.051Z,40.60
2018-11-06T19:58:29.105Z,41.47
2018-11-06T20:00:59.216Z,40.27
2018-11-06T20:03:30.153Z,34.30
2018-11-06T20:06:01.053Z,39.13
2018-11-06T20:08:31.552Z,29.60
2018-11-06T20:11:02.317Z,34.27
2018-11-06T20:13:33.116Z,35.13
2018-11-06T20:16:04.055Z,35.53
2018-11-06T20:18:35.736Z,36.93
2018-11-06T20:21:06.883Z,39.00
2018-11-06T20:23:37.727Z,38.17
2018-11-06T20:26:08.474Z,35.73
2018-11-06T20:28:39.405Z,37.87
2018-11-06T20:31:10.955Z,31.23
2018-11-06T20:33:41.795Z,33.13
2018-11-06T20:36:12.230Z,35.33
2018-11-06T20:38:42.678Z,37.33
2018-11-06T20:41:13.401Z,34.57
2018-11-06T20:43:43.912Z,37.57
2018-11-06T20:46:14.214Z,32.60
2018-11-06T20:48:45.491Z,35.60
2018-11-06T20:51:16.344Z,35.40
2018-11-06T20:53:47.891Z,34.87
2018-11-06T20:56:18.548Z,33.70
2018-11-06T20:58:48.934Z,33.67
2018-11-06T21:01:19.480Z,33.60
2018-11-06T21:03:49.904Z,32.70
2018-11-06T21:06:20.521Z,33.07
2018-11-06T21:08:51.290Z,33.67
2018-11-06T21:11:21.809Z,33.40
2018-11-06T21:13:52.270Z,34.10
2018-11-06T21:16:23.652Z,30.57
2018-11-06T21:18:54.395Z,34.57
2018-11-06T21:21:24.802Z,34.70
2018-11-06T21:23:55.290Z,34.87
2018-11-06T21:26:25.708Z,34.07
2018-11-06T21:28:56.276Z,93.10
2018-11-06T21:31:28.263Z,54.30
2018-11-06T21:33:58.725Z,37.57
2018-11-06T21:36:29.366Z,35.17
2018-11-06T21:39:00.064Z,39.80
2018-11-06T21:41:31.506Z,35.00
2018-11-06T21:44:02.082Z,34.23
2018-11-06T21:46:32.826Z,38.83
2018-11-06T21:49:03.381Z,35.43
2018-11-06T21:51:33.729Z,36.03
2018-11-06T21:54:04.072Z,37.13
2018-11-06T21:56:34.579Z,37.23
2018-11-06T21:59:05.344Z,39.20
2018-11-06T22:01:36.089Z,38.20
2018-11-06T22:04:07.222Z,37.70
2018-11-06T22:06:37.891Z,38.23
2018-11-06T22:09:09.472Z,40.83
2018-11-06T22:11:41.990Z,39.17
2018-11-06T22:14:12.651Z,36.63
2018-11-06T22:16:43.077Z,41.67
2018-11-06T22:19:14.191Z,41.73
2018-11-06T22:21:46.784Z,39.37
2018-11-06T22:24:20.253Z,36.40
2018-11-06T22:26:53.668Z,35.47
2018-11-06T22:29:24.883Z,32.20
2018-11-06T22:31:56.150Z,35.17
2018-11-06T22:34:27.888Z,33.90
2018-11-06T22:36:58.533Z,35.07
2018-11-06T22:39:29.021Z,34.60
2018-11-06T22:42:00.528Z,35.43
2018-11-06T22:44:30.782Z,35.80
2018-11-06T22:47:00.876Z,37.80
2018-11-06T22:49:31.341Z,40.57
2018-11-06T22:52:01.575Z,45.73
2018-11-06T22:54:31.842Z,44.43
2018-11-06T22:57:02.768Z,48.03
2018-11-06T22:59:33.500Z,45.87
2018-11-06T23:02:04.915Z,43.43
2018-11-06T23:04:36.749Z,45.07
2018-11-06T23:07:08.770Z,50.10
2018-11-06T23:09:39.685Z,50.27
2018-11-06T23:12:11.058Z,48.73
2018-11-06T23:14:43.141Z,126.57
2018-11-06T23:17:13.649Z,97.03
2018-11-06T23:19:44.822Z,66.87
2018-11-06T23:22:15.942Z,61.40
2018-11-06T23:24:47.571Z,65.57
2018-11-06T23:27:19.258Z,49.30
2018-11-06T23:29:50.191Z,52.30
2018-11-06T23:32:23.185Z,49.20
